| time (UTC) | temp F | wind direction | speed MPH | gust MPH | rain 1hr in | rain 24hr in | rain mn in | humidity % | barometer mb |
| 20260510044922 | 40 | 254 | 2.0 | 5.0 | 0.00 | 0.26 | 0.00 | 89 | 1005.4 |
| 20260510044431 | 40 | 245 | 0.0 | 4.0 | 0.00 | 0.26 | 0.00 | 89 | 1005.4 |
| 20260510043925 | 40 | 210 | 1.0 | 6.0 | 0.00 | 0.26 | 0.00 | 89 | 1005.3 |
| 20260510043452 | 40 | 146 | 0.0 | 5.0 | 0.00 | 0.26 | 0.00 | 89 | 1004.9 |
| 20260510043429 | 40 | 239 | 1.0 | 6.0 | 0.00 | 0.26 | 0.00 | 88 | 1005.2 |
| 20260510042429 | 41 | 232 | 2.0 | 5.0 | 0.00 | 0.26 | 0.00 | 89 | 1005.1 |
| 20260510041947 | 41 | 117 | 0.0 | 3.0 | 0.00 | 0.26 | 0.00 | 90 | 1004.9 |
| 20260510041421 | 41 | 359 | 2.0 | 3.0 | 0.00 | 0.26 | 0.00 | 90 | 1004.8 |
| 20260510040924 | 41 | 203 | 2.0 | 3.0 | 0.00 | 0.26 | 0.00 | 90 | 1004.8 |
| 20260510040415 | 41 | 240 | 2.0 | 3.0 | 0.00 | 0.26 | 0.00 | 91 | 1004.7 |
| 20260510040218 | 41 | 149 | 1.0 | 3.0 | 0.00 | 0.26 | 0.26 | 91 | 1004.9 |
| 20260510035427 | 41 | 244 | 1.0 | 5.0 | 0.00 | 0.26 | 0.26 | 92 | 1004.8 |
| 20260510035157 | 42 | 169 | 1.0 | 5.0 | 0.00 | 0.26 | 0.26 | 91 | 1004.8 |
| 20260510034430 | 42 | 173 | 1.0 | 3.0 | 0.00 | 0.26 | 0.26 | 91 | 1004.8 |
| 20260510034221 | 42 | 149 | 0.0 | 2.0 | 0.00 | 0.26 | 0.26 | 91 | 1004.6 |
| 20260510033437 | 42 | 149 | 1.0 | 2.0 | 0.00 | 0.26 | 0.26 | 91 | 1004.6 |
| 20260510032951 | 42 | 192 | 0.0 | 2.0 | 0.00 | 0.26 | 0.26 | 90 | 1004.4 |
| 20260510032923 | 42 | 273 | 1.0 | 2.0 | 0.00 | 0.26 | 0.26 | 91 | 1004.6 |
| 20260510032154 | 43 | 237 | 0.0 | 3.0 | 0.00 | 0.26 | 0.26 | 90 | 1004.6 |
| 20260510031429 | 43 | 208 | 0.0 | 4.0 | 0.00 | 0.26 | 0.26 | 90 | 1004.4 |
| 20260510030917 | 43 | 159 | 3.0 | 4.0 | 0.00 | 0.26 | 0.26 | 89 | 1004.4 |
| 20260510030432 | 43 | 136 | 0.0 | 3.0 | 0.00 | 0.26 | 0.26 | 90 | 1004.6 |
| 20260510025925 | 43 | 77 | 1.0 | 4.0 | 0.00 | 0.26 | 0.26 | 89 | 1004.5 |
| 20260510025703 | 44 | 61 | 2.0 | 4.0 | 0.00 | 0.26 | 0.26 | 90 | 1004.6 |
| 20260510024932 | 44 | 161 | 0.0 | 2.0 | 0.00 | 0.26 | 0.26 | 91 | 1004.6 |
| 20260510024430 | 44 | 327 | 1.0 | 2.0 | 0.00 | 0.26 | 0.26 | 91 | 1004.5 |
| 20260510023925 | 44 | 315 | 1.0 | 2.0 | 0.00 | 0.26 | 0.26 | 90 | 1004.4 |
| 20260510023419 | 44 | 196 | 0.0 | 2.0 | 0.00 | 0.26 | 0.26 | 90 | 1004.5 |
| 20260510022931 | 45 | 219 | 0.0 | 3.0 | 0.00 | 0.26 | 0.26 | 90 | 1004.5 |
| 20260510022423 | 45 | 147 | 3.0 | 3.0 | 0.00 | 0.26 | 0.26 | 89 | 1004.4 |
| 20260510021919 | 45 | 168 | 1.0 | 3.0 | 0.00 | 0.26 | 0.26 | 90 | 1004.5 |
| 20260510021424 | 45 | 203 | 0.0 | 4.0 | 0.00 | 0.26 | 0.26 | 90 | 1004.4 |
| 20260510020917 | 45 | 273 | 0.0 | 4.0 | 0.00 | 0.26 | 0.26 | 90 | 1004.4 |
| 20260510020656 | 45 | 134 | 2.0 | 3.0 | 0.00 | 0.26 | 0.26 | 90 | 1004.3 |
| 20260510015923 | 45 | 122 | 0.0 | 4.0 | 0.00 | 0.26 | 0.26 | 90 | 1004.5 |
| 20260510015418 | 45 | 308 | 0.0 | 4.0 | 0.00 | 0.26 | 0.26 | 92 | 1004.2 |
| 20260510014917 | 45 | 228 | 0.0 | 4.0 | 0.00 | 0.26 | 0.26 | 91 | 1004.3 |
| 20260510014417 | 45 | 222 | 0.0 | 4.0 | 0.00 | 0.26 | 0.26 | 92 | 1004.3 |
| 20260510013919 | 45 | 184 | 0.0 | 3.0 | 0.00 | 0.26 | 0.26 | 93 | 1004.2 |
| 20260510013413 | 45 | 236 | 0.0 | 4.0 | 0.00 | 0.26 | 0.26 | 93 | 1004.3 |
| 20260510012913 | 45 | 294 | 0.0 | 4.0 | 0.00 | 0.26 | 0.26 | 94 | 1004.3 |
| 20260510012831 | 56 | 135 | 0.0 | 2.0 | 0.01 | 0.05 | 0.05 | 79 | 1000.4 |
| 20260510012416 | 45 | 342 | 0.0 | 4.0 | 0.00 | 0.26 | 0.26 | 94 | 1004.2 |
| 20260510012147 | 45 | 144 | 2.0 | 4.0 | 0.00 | 0.26 | 0.26 | 94 | 1004.1 |
| 20260510011505 | 56 | 253 | 0.0 | 2.0 | 0.02 | 0.05 | 0.05 | 79 | 1001.1 |
| 20260510011441 | 51 | 171 | 1.0 | 2.0 | 0.02 | 0.05 | 0.05 | 87 | 1001.6 |
| 20260510011407 | 45 | 210 | 1.0 | 4.0 | 0.00 | 0.26 | 0.26 | 95 | 1004.0 |
| 20260510011241 | 48 | 145 | 1.0 | 3.0 | 0.00 | 0.26 | 0.26 | 99 | 1002.6 |
| 20260510011158 | 48 | 229 | 0.0 | 4.0 | 0.00 | 0.26 | 0.26 | 99 | 1002.1 |
| 20260510011151 | 48 | 120 | 2.0 | 4.0 | 0.00 | 0.26 | 0.26 | 99 | 1001.9 |
| 20260510011003 | 48 | 216 | 1.0 | 2.0 | 0.17 | 0.26 | 0.26 | 99 | 1001.3 |
| 20260510010941 | 48 | 253 | 0.0 | 5.0 | 0.20 | 0.25 | 0.25 | 99 | 1001.5 |
| 20260510010932 | 48 | 241 | 4.0 | 5.0 | 0.20 | 0.25 | 0.25 | 99 | 1001.5 |
| 20260510010919 | 49 | 241 | 0.0 | 6.0 | 0.19 | 0.24 | 0.24 | 99 | 1001.3 |
| 20260510010907 | 46 | 307 | 2.0 | 5.0 | 0.00 | 0.26 | 0.26 | 95 | 1003.8 |
| 20260510010543 | 55 | 180 | 0.0 | 2.0 | 0.02 | 0.05 | 0.05 | 80 | 1000.6 |
| 20260510010409 | 46 | 231 | 2.0 | 5.0 | 0.00 | 0.26 | 0.26 | 94 | 1003.8 |
| 20260510010355 | 55 | 164 | 0.0 | 3.0 | 0.02 | 0.05 | 0.05 | 79 | 1001.2 |
| 20260510010340 | 53 | 209 | 0.0 | 3.0 | 0.02 | 0.05 | 0.05 | 84 | 1001.3 |
| 20260510010152 | 51 | 135 | 0.0 | 2.0 | 0.02 | 0.04 | 0.04 | 88 | 1001.7 |
| 20260510010141 | 51 | 328 | 0.0 | 2.0 | 0.02 | 0.04 | 0.04 | 88 | 1001.8 |
| 20260510010052 | 47 | 52 | 0.0 | 4.0 | 0.00 | 0.26 | 0.26 | 98 | 1003.0 |
| 20260510010042 | 47 | 85 | 0.0 | 3.0 | 0.00 | 0.26 | 0.26 | 99 | 1002.8 |
| 20260510010031 | 47 | 232 | 2.0 | 3.0 | 0.00 | 0.26 | 0.26 | 98 | 1002.8 |
| 20260510010021 | 47 | 215 | 0.0 | 3.0 | 0.00 | 0.26 | 0.26 | 99 | 1002.8 |
| 20260510005957 | 46 | 143 | 1.0 | 4.0 | 0.00 | 0.26 | 0.26 | 95 | 1003.6 |
| 20260510005829 | 48 | 177 | 1.0 | 3.0 | 0.00 | 0.26 | 0.26 | 99 | 1002.5 |
| 20260510005740 | 48 | 247 | 0.0 | 3.0 | 0.00 | 0.26 | 0.26 | 99 | 1002.5 |
| 20260510005720 | 48 | 313 | 0.0 | 3.0 | 0.00 | 0.26 | 0.26 | 99 | 1002.4 |
| 20260510005708 | 48 | 256 | 1.0 | 3.0 | 0.00 | 0.26 | 0.26 | 99 | 1002.2 |
| 20260510005657 | 48 | 176 | 1.0 | 3.0 | 0.00 | 0.26 | 0.26 | 99 | 1002.2 |
| 20260510005645 | 48 | 238 | 2.0 | 3.0 | 0.00 | 0.26 | 0.26 | 99 | 1001.9 |
| 20260510005506 | 46 | 260 | 1.0 | 4.0 | 0.00 | 0.26 | 0.26 | 96 | 1003.6 |
| 20260510005335 | 48 | 238 | 0.0 | 3.0 | 0.00 | 0.26 | 0.26 | 99 | 1001.9 |
| 20260510005322 | 48 | 224 | 0.0 | 1.0 | 0.00 | 0.26 | 0.26 | 99 | 1001.9 |
| 20260510005310 | 49 | 204 | 0.0 | 3.0 | 0.00 | 0.26 | 0.26 | 99 | 1001.6 |
| 20260510005246 | 48 | 252 | 0.0 | 3.0 | 0.00 | 0.26 | 0.26 | 99 | 1001.8 |
| 20260510005227 | 48 | 14 | 0.0 | 3.0 | 0.00 | 0.26 | 0.26 | 99 | 1001.8 |
| 20260510005211 | 48 | 149 | 0.0 | 3.0 | 0.02 | 0.26 | 0.26 | 99 | 1001.6 |
| 20260510005157 | 48 | 160 | 1.0 | 4.0 | 0.02 | 0.26 | 0.26 | 99 | 1001.7 |
| 20260510005142 | 48 | 315 | 0.0 | 4.0 | 0.02 | 0.26 | 0.26 | 99 | 1001.6 |
| 20260510005126 | 48 | 172 | 1.0 | 3.0 | 0.02 | 0.26 | 0.26 | 99 | 1001.5 |
| 20260510005116 | 48 | 55 | 0.0 | 4.0 | 0.04 | 0.26 | 0.26 | 99 | 1001.5 |
| 20260510005105 | 48 | 244 | 1.0 | 4.0 | 0.11 | 0.26 | 0.26 | 99 | 1001.6 |
| 20260510004929 | 48 | 111 | 2.0 | 2.0 | 0.19 | 0.26 | 0.26 | 99 | 1001.5 |
| 20260510004911 | 46 | 237 | 3.0 | 4.0 | 0.00 | 0.26 | 0.26 | 96 | 1003.5 |
| 20260510004853 | 48 | 245 | 1.0 | 4.0 | 0.19 | 0.25 | 0.25 | 99 | 1001.6 |
| 20260510004553 | 48 | 187 | 0.0 | 6.0 | 0.20 | 0.25 | 0.25 | 99 | 1001.7 |
| 20260510004417 | 47 | 190 | 0.0 | 4.0 | 0.00 | 0.26 | 0.26 | 97 | 1003.5 |
| 20260510004350 | 49 | 228 | 3.0 | 5.0 | 0.19 | 0.24 | 0.24 | 99 | 1001.4 |
| 20260510004335 | 49 | 95 | 0.0 | 6.0 | 0.19 | 0.24 | 0.24 | 99 | 1001.5 |
| 20260510004326 | 49 | 213 | 0.0 | 9.0 | 0.19 | 0.23 | 0.23 | 99 | 1001.6 |
| 20260510004256 | 50 | 139 | 4.0 | 9.0 | 0.17 | 0.22 | 0.22 | 99 | 1001.7 |
| 20260510004240 | 51 | 337 | 3.0 | 5.0 | 0.10 | 0.15 | 0.17 | 98 | 1001.0 |
| 20260510004208 | 47 | 195 | 2.0 | 4.0 | 0.00 | 0.26 | 0.26 | 97 | 1003.3 |
| 20260510004154 | 53 | 257 | 0.0 | 3.0 | 0.01 | 0.06 | 0.06 | 92 | 999.4 |
| 20260510004136 | 54 | 118 | 0.0 | 2.0 | 0.00 | 0.05 | 0.05 | 87 | 999.5 |
| 20260510004120 | 55 | 135 | 0.0 | 2.0 | 0.00 | 0.05 | 0.05 | 84 | 999.6 |
| 20260510004106 | 56 | 322 | 0.0 | 2.0 | 0.00 | 0.05 | 0.05 | 81 | 999.7 |
| 20260510004057 | 56 | 169 | 0.0 | 3.0 | 0.00 | 0.05 | 0.05 | 77 | 999.9 |
| 20260510003836 | 57 | 224 | 0.0 | 3.0 | 0.00 | 0.05 | 0.05 | 77 | 1000.0 |
| 20260510003818 | 57 | 215 | 0.0 | 3.0 | 0.00 | 0.05 | 0.05 | 77 | 1000.0 |
| 20260510003755 | 58 | 236 | 3.0 | 3.0 | 0.00 | 0.05 | 0.05 | 72 | 1000.1 |
| 20260510003747 | 47 | 253 | 1.0 | 4.0 | 0.00 | 0.26 | 0.26 | 96 | 1003.3 |
| 20260510001746 | 58 | 315 | 0.0 | 2.0 | 0.01 | 0.05 | 0.05 | 78 | 1000.1 |
| 20260509231237 | 48 | 235 | 0.0 | 3.0 | 0.00 | 0.26 | 0.26 | 99 | 1001.7 |
| 20260509230824 | 48 | 334 | 1.0 | 2.0 | 0.00 | 0.26 | 0.26 | 99 | 1001.7 |
| 20260509225823 | 55 | 304 | 0.0 | 2.0 | 0.02 | 0.05 | 0.05 | 78 | 1000.9 |
| 20260509225428 | 48 | 135 | 0.0 | 3.0 | 0.00 | 0.26 | 0.26 | 99 | 1001.7 |
| 20260509224808 | 48 | 252 | 2.0 | 3.0 | 0.00 | 0.26 | 0.26 | 99 | 1001.7 |
| 20260509211031 | 51 | 156 | 0.0 | 3.0 | 0.04 | 0.09 | 0.09 | 96 | 1000.3 |
| 20260509210821 | 51 | 243 | 1.0 | 3.0 | 0.02 | 0.07 | 0.07 | 94 | 999.7 |
| 20260509195233 | 52 | 191 | 0.0 | 2.0 | 0.02 | 0.05 | 0.05 | 86 | 1001.6 |
| 20260509192401 | 51 | 135 | 0.0 | 2.0 | 0.02 | 0.04 | 0.04 | 88 | 1002.1 |
| 20260509191859 | 51 | 224 | 0.0 | 2.0 | 0.01 | 0.04 | 0.04 | 88 | 1002.2 |
| 20260509191400 | 52 | 135 | 0.0 | 3.0 | 0.01 | 0.04 | 0.04 | 87 | 1002.3 |
| 20260509190859 | 53 | 185 | 0.0 | 3.0 | 0.00 | 0.03 | 0.03 | 83 | 1002.5 |
| 20260509190407 | 53 | 152 | 0.0 | 2.0 | 0.00 | 0.03 | 0.03 | 78 | 1002.4 |
| 20260509185906 | 54 | 315 | 0.0 | 2.0 | 0.00 | 0.03 | 0.03 | 81 | 1002.8 |
| 20260509185810 | 54 | 315 | 0.0 | 1.0 | 0.00 | 0.03 | 0.03 | 75 | 1002.5 |
| 20260509185418 | 54 | 224 | 0.0 | 2.0 | 0.00 | 0.03 | 0.03 | 79 | 1002.6 |
| 20260509184922 | 54 | 169 | 0.0 | 1.0 | 0.00 | 0.03 | 0.03 | 74 | 1002.6 |
| 20260509184756 | 54 | 315 | 0.0 | 1.0 | 0.00 | 0.03 | 0.03 | 75 | 1002.5 |
| 20260509184456 | 54 | 315 | 0.0 | 1.0 | 0.00 | 0.03 | 0.03 | 75 | 1002.5 |
| 20260509183930 | 55 | 315 | 0.0 | 2.0 | 0.00 | 0.03 | 0.03 | 79 | 1002.7 |
| 20260509183413 | 54 | 176 | 0.0 | 2.0 | 0.01 | 0.03 | 0.03 | 78 | 1002.7 |
| 20260509183132 | 54 | 340 | 0.0 | 1.0 | 0.01 | 0.03 | 0.03 | 74 | 1002.6 |
| 20260509182402 | 53 | 247 | 0.0 | 1.0 | 0.01 | 0.03 | 0.03 | 81 | 1002.6 |
| 20260509181903 | 53 | 224 | 0.0 | 2.0 | 0.01 | 0.03 | 0.03 | 83 | 1002.7 |
| 20260509181413 | 52 | 149 | 0.0 | 1.0 | 0.01 | 0.03 | 0.03 | 84 | 1003.2 |
| 20260509181403 | 52 | 302 | 0.0 | 2.0 | 0.01 | 0.03 | 0.03 | 80 | 1002.8 |
| 20260509180403 | 52 | 315 | 0.0 | 2.0 | 0.01 | 0.03 | 0.03 | 85 | 1003.3 |
| 20260509175901 | 51 | 348 | 0.0 | 2.0 | 0.01 | 0.03 | 0.03 | 83 | 1003.3 |
| 20260509175414 | 51 | 211 | 1.0 | 3.0 | 0.01 | 0.02 | 0.02 | 78 | 1003.5 |